createdAt,value
2022-07-29T03:06:00.629Z,0.60
2022-07-29T03:08:28.771Z,1.80
2022-07-29T03:10:56.650Z,1.60
2022-07-29T03:13:24.610Z,1.97
2022-07-29T03:15:51.889Z,1.80
2022-07-29T03:18:19.479Z,1.63
2022-07-29T03:20:46.709Z,1.80
2022-07-29T03:23:20.369Z,2.03
2022-07-29T03:25:50.381Z,1.88
2022-07-29T03:28:18.681Z,1.80
2022-07-29T03:30:46.404Z,2.13
2022-07-29T03:33:13.930Z,1.90
2022-07-29T03:35:41.181Z,2.20
2022-07-29T03:38:08.310Z,2.05
2022-07-29T03:40:41.463Z,1.92
2022-07-29T03:43:12.792Z,1.77
2022-07-29T03:45:40.539Z,1.90
2022-07-29T03:48:10.532Z,1.90
2022-07-29T03:50:38.924Z,2.10
2022-07-29T03:53:09.497Z,2.30
2022-07-29T03:55:44.923Z,2.50
2022-07-29T03:58:12.720Z,2.35
2022-07-29T04:00:40.241Z,2.13
2022-07-29T04:03:11.960Z,2.37
2022-07-29T04:05:39.221Z,2.15
2022-07-29T04:08:06.691Z,2.20
2022-07-29T04:10:34.152Z,1.90
2022-07-29T04:13:03.065Z,2.20
2022-07-29T04:15:32.056Z,2.20
2022-07-29T04:18:02.670Z,2.05
2022-07-29T04:20:29.827Z,2.10
2022-07-29T04:22:58.286Z,2.50
2022-07-29T04:25:25.368Z,2.13
2022-07-29T04:28:01.644Z,2.40
2022-07-29T04:30:28.785Z,2.33
2022-07-29T04:32:55.955Z,2.30
2022-07-29T04:35:25.075Z,2.20
2022-07-29T04:37:52.156Z,2.35
2022-07-29T04:40:19.224Z,2.30
2022-07-29T04:42:48.030Z,2.20
2022-07-29T04:45:16.729Z,2.60
2022-07-29T04:47:49.764Z,2.28
2022-07-29T04:50:19.942Z,2.30
2022-07-29T04:52:47.017Z,2.40
2022-07-29T04:55:15.811Z,2.20
2022-07-29T04:57:43.164Z,2.60
2022-07-29T05:00:10.733Z,2.33
2022-07-29T05:02:40.321Z,2.60
2022-07-29T05:05:07.696Z,2.40
2022-07-29T05:07:34.991Z,2.72
2022-07-29T05:10:02.057Z,2.72
2022-07-29T05:12:31.837Z,2.57
2022-07-29T05:14:58.915Z,2.80
2022-07-29T05:17:25.953Z,2.60
2022-07-29T05:19:56.283Z,2.70
2022-07-29T05:22:24.068Z,2.60
2022-07-29T05:24:51.490Z,2.88
2022-07-29T05:27:23.006Z,3.40
2022-07-29T05:29:50.123Z,3.15
2022-07-29T05:32:17.321Z,2.83
2022-07-29T05:34:51.422Z,2.80
2022-07-29T05:37:20.291Z,2.65
2022-07-29T05:39:56.247Z,2.88
2022-07-29T05:42:24.824Z,2.90
2022-07-29T05:44:54.107Z,3.90
2022-07-29T05:47:21.282Z,2.90
2022-07-29T05:49:48.584Z,3.22
2022-07-29T05:52:15.831Z,2.63
2022-07-29T05:54:45.528Z,3.07
2022-07-29T05:57:22.734Z,3.00
2022-07-29T05:59:50.468Z,2.80
2022-07-29T06:02:19.073Z,3.00
2022-07-29T06:04:46.368Z,3.05
2022-07-29T06:07:13.549Z,3.05
2022-07-29T06:09:40.737Z,3.47
2022-07-29T06:12:07.886Z,3.97
2022-07-29T06:14:37.884Z,3.75
2022-07-29T06:17:07.847Z,3.40
2022-07-29T06:19:37.735Z,3.78
2022-07-29T06:22:05.277Z,3.58
2022-07-29T06:24:34.239Z,3.40
2022-07-29T06:27:02.525Z,3.40
2022-07-29T06:29:32.462Z,3.30
2022-07-29T06:31:59.659Z,3.38
2022-07-29T06:34:30.414Z,3.70
2022-07-29T06:37:00.563Z,3.00
2022-07-29T06:39:28.828Z,3.00
2022-07-29T06:41:55.876Z,3.33
2022-07-29T06:44:23.005Z,3.03
2022-07-29T06:46:53.887Z,3.20
2022-07-29T06:49:23.378Z,3.33
2022-07-29T06:51:50.545Z,3.60
2022-07-29T06:54:17.944Z,3.30
2022-07-29T06:56:48.296Z,3.70
2022-07-29T06:59:15.549Z,3.20
2022-07-29T07:01:45.531Z,3.17
2022-07-29T07:04:13.467Z,2.75
2022-07-29T07:06:40.754Z,3.10
2022-07-29T07:09:08.158Z,3.40
2022-07-29T07:11:35.290Z,3.10
2022-07-29T07:14:14.485Z,3.53
2022-07-29T07:16:43.539Z,3.58
2022-07-29T07:19:10.859Z,3.67
2022-07-29T07:21:46.453Z,3.17
2022-07-29T07:24:13.937Z,3.43
2022-07-29T07:26:44.518Z,3.35
2022-07-29T07:29:14.481Z,3.33
2022-07-29T07:31:43.939Z,3.33
2022-07-29T07:34:13.547Z,3.67
2022-07-29T07:36:41.026Z,3.53
2022-07-29T07:39:08.109Z,3.78
2022-07-29T07:41:35.217Z,3.10
2022-07-29T07:44:02.303Z,3.28
2022-07-29T07:46:32.528Z,3.03
2022-07-29T07:49:08.239Z,3.00
2022-07-29T07:51:39.552Z,3.03
2022-07-29T07:54:06.654Z,3.20
2022-07-29T07:56:35.447Z,3.17
2022-07-29T07:59:02.876Z,3.50
2022-07-29T08:01:30.020Z,3.25
2022-07-29T08:04:15.599Z,3.20
2022-07-29T08:06:43.119Z,3.60
2022-07-29T08:09:28.230Z,3.30
2022-07-29T08:12:00.432Z,3.30
2022-07-29T08:14:27.510Z,3.17
2022-07-29T08:16:55.780Z,3.60
2022-07-29T08:19:23.119Z,3.17
2022-07-29T08:21:53.694Z,3.20
2022-07-29T08:24:47.456Z,3.35
2022-07-29T08:27:40.729Z,3.17
2022-07-29T08:30:02.202Z,3.28
2022-07-29T08:32:52.195Z,3.33
2022-07-29T08:35:16.497Z,3.15
2022-07-29T08:37:43.702Z,3.30
2022-07-29T08:40:11.070Z,3.45
2022-07-29T08:42:38.222Z,3.23
2022-07-29T08:45:08.460Z,3.20
2022-07-29T08:47:39.575Z,3.20
2022-07-29T08:50:07.591Z,2.80
2022-07-29T08:52:37.035Z,3.25
2022-07-29T08:55:06.292Z,3.10
2022-07-29T08:57:34.353Z,2.65
2022-07-29T09:00:11.373Z,2.50
2022-07-29T09:02:43.583Z,2.50
2022-07-29T09:05:16.291Z,2.60
2022-07-29T09:07:44.954Z,2.70
2022-07-29T09:10:12.391Z,2.93
2022-07-29T09:12:42.581Z,2.55
2022-07-29T09:15:09.832Z,2.40
2022-07-29T09:17:46.921Z,2.53
2022-07-29T09:20:23.192Z,2.25
2022-07-29T09:22:51.769Z,2.53
2022-07-29T09:25:35.021Z,2.28
2022-07-29T09:28:12.433Z,2.50
2022-07-29T09:30:55.511Z,2.03
2022-07-29T09:33:23.546Z,1.95
2022-07-29T09:36:20.192Z,2.60
2022-07-29T09:38:58.852Z,2.40
2022-07-29T09:41:26.018Z,2.63
2022-07-29T09:44:01.435Z,2.50
2022-07-29T09:46:28.584Z,2.57
2022-07-29T09:49:09.108Z,2.40
2022-07-29T09:51:38.100Z,2.55
2022-07-29T09:54:28.631Z,2.50
2022-07-29T09:56:57.058Z,2.47
2022-07-29T09:59:27.363Z,2.22
2022-07-29T10:01:55.165Z,2.70
2022-07-29T10:04:22.496Z,2.20
2022-07-29T10:07:06.227Z,2.45
2022-07-29T10:09:34.239Z,2.20
2022-07-29T10:12:15.413Z,2.75
2022-07-29T10:14:43.065Z,2.38
2022-07-29T10:17:11.099Z,2.30
2022-07-29T10:19:43.878Z,2.28
2022-07-29T10:22:11.858Z,2.50
2022-07-29T10:24:39.841Z,2.60
2022-07-29T10:27:08.919Z,2.43
2022-07-29T10:29:43.507Z,2.00
2022-07-29T10:32:19.485Z,2.70
2022-07-29T10:35:07.378Z,2.65
2022-07-29T10:37:45.945Z,2.40
2022-07-29T10:40:50.774Z,2.22
2022-07-29T10:43:23.214Z,2.23
2022-07-29T10:45:57.480Z,2.63
2022-07-29T10:48:25.178Z,2.67
2022-07-29T10:51:04.585Z,2.37
2022-07-29T10:53:51.022Z,2.20
2022-07-29T10:56:30.190Z,2.20
2022-07-29T10:59:15.927Z,2.20
2022-07-29T11:01:49.316Z,2.00
2022-07-29T11:04:39.829Z,2.08
2022-07-29T11:07:08.817Z,2.10
2022-07-29T11:09:38.307Z,2.10
2022-07-29T11:12:05.798Z,2.65
2022-07-29T11:14:51.807Z,2.50
2022-07-29T11:17:19.273Z,2.45
2022-07-29T11:19:52.063Z,2.10
2022-07-29T11:22:35.149Z,1.85
2022-07-29T11:25:16.745Z,1.80
2022-07-29T11:27:45.882Z,1.80
2022-07-29T11:30:13.353Z,2.20
2022-07-29T11:35:36.992Z,2.00
2022-07-29T11:38:23.572Z,1.90
2022-07-29T11:41:09.959Z,2.10
2022-07-29T11:44:01.616Z,2.40
2022-07-29T11:46:48.236Z,2.05
2022-07-29T11:49:20.299Z,1.90
2022-07-29T11:51:53.526Z,1.70
2022-07-29T11:54:27.221Z,1.55
2022-07-29T11:56:57.930Z,2.03
2022-07-29T11:59:33.448Z,1.67
2022-07-29T12:02:36.638Z,1.45
2022-07-29T12:04:55.475Z,1.40
2022-07-29T12:07:35.434Z,1.60
2022-07-29T12:10:03.441Z,1.90
2022-07-29T12:12:30.676Z,1.60
2022-07-29T12:15:12.005Z,2.00
2022-07-29T12:17:40.313Z,1.63
2022-07-29T12:20:07.835Z,1.70
2022-07-29T12:22:38.085Z,1.70
2022-07-29T12:25:30.394Z,1.65
2022-07-29T12:28:02.066Z,1.80
2022-07-29T12:30:46.408Z,1.50
2022-07-29T12:33:14.580Z,1.73
2022-07-29T12:35:41.889Z,1.63
2022-07-29T12:38:10.831Z,1.83
2022-07-29T12:40:39.450Z,1.60
2022-07-29T12:43:10.659Z,1.70
2022-07-29T12:45:45.948Z,1.93
2022-07-29T12:48:13.307Z,1.88
2022-07-29T12:50:58.488Z,1.77
2022-07-29T12:53:26.144Z,1.67
2022-07-29T12:55:54.294Z,1.55
2022-07-29T12:58:31.514Z,1.70
2022-07-29T13:01:06.009Z,1.70
2022-07-29T13:03:57.039Z,1.50
2022-07-29T13:06:31.253Z,1.85
2022-07-29T13:09:01.918Z,1.60
2022-07-29T13:11:34.132Z,1.90
2022-07-29T13:14:05.622Z,1.85
2022-07-29T13:16:34.938Z,1.85
2022-07-29T13:19:10.186Z,1.90
2022-07-29T13:21:37.766Z,2.00
2022-07-29T13:24:05.108Z,1.97
2022-07-29T13:26:32.299Z,2.00
2022-07-29T13:28:59.451Z,2.22
2022-07-29T13:31:27.120Z,1.85
2022-07-29T13:33:54.251Z,1.90
2022-07-29T13:36:21.597Z,1.70
2022-07-29T13:38:48.751Z,1.70
2022-07-29T13:41:16.102Z,2.40
2022-07-29T13:43:45.264Z,2.10
2022-07-29T13:46:15.159Z,1.90
2022-07-29T13:48:42.284Z,1.77
2022-07-29T13:51:09.358Z,2.10
2022-07-29T13:53:36.580Z,2.10
2022-07-29T13:56:10.860Z,2.47
2022-07-29T13:58:37.915Z,1.88
2022-07-29T14:01:07.740Z,1.95
2022-07-29T14:03:35.025Z,1.90
2022-07-29T14:06:04.818Z,2.17
2022-07-29T14:08:31.937Z,1.92
2022-07-29T14:10:59.064Z,1.88
2022-07-29T14:13:26.348Z,1.90
2022-07-29T14:15:53.746Z,1.90
2022-07-29T14:18:20.853Z,1.65
2022-07-29T14:20:48.036Z,1.80
2022-07-29T14:23:16.467Z,1.70
2022-07-29T14:25:44.500Z,2.10
2022-07-29T14:28:12.822Z,2.00
2022-07-29T14:30:42.199Z,1.60
2022-07-29T14:33:09.328Z,2.00
2022-07-29T14:35:36.387Z,2.13
2022-07-29T14:38:03.595Z,2.13
2022-07-29T14:40:32.033Z,2.40
2022-07-29T14:42:59.133Z,2.10
2022-07-29T14:45:26.325Z,2.10
2022-07-29T14:47:56.434Z,2.00
2022-07-29T14:50:31.324Z,2.08
2022-07-29T14:53:03.484Z,1.80
2022-07-29T14:55:30.755Z,2.10
2022-07-29T14:58:07.785Z,2.15
2022-07-29T15:00:37.856Z,2.43
2022-07-29T15:03:05.249Z,1.98
2022-07-29T15:05:32.917Z,2.33
2022-07-29T15:08:00.171Z,2.28
2022-07-29T15:10:29.228Z,2.30
2022-07-29T15:12:57.997Z,2.45
2022-07-29T15:15:25.177Z,2.60
2022-07-29T15:17:55.048Z,1.90
2022-07-29T15:20:22.400Z,2.75
2022-07-29T15:22:49.511Z,2.40
2022-07-29T15:25:16.568Z,2.20
2022-07-29T15:27:44.431Z,2.80
2022-07-29T15:30:32.748Z,2.28
2022-07-29T15:33:02.066Z,2.60
2022-07-29T15:35:32.150Z,2.78
2022-07-29T15:38:04.437Z,2.50
2022-07-29T15:40:31.547Z,2.30
2022-07-29T15:43:01.684Z,3.03
2022-07-29T15:45:31.936Z,3.27
2022-07-29T15:48:03.271Z,3.20
2022-07-29T15:50:30.428Z,2.83
2022-07-29T15:52:57.533Z,3.10
2022-07-29T15:55:24.674Z,3.60
2022-07-29T15:57:53.079Z,2.70
2022-07-29T16:00:23.670Z,2.95
2022-07-29T16:02:50.817Z,2.80
2022-07-29T16:05:17.938Z,3.30
2022-07-29T16:07:45.107Z,2.80
2022-07-29T16:10:12.227Z,3.40
2022-07-29T16:12:40.503Z,2.80
2022-07-29T16:15:11.488Z,2.90
2022-07-29T16:17:43.350Z,2.80
2022-07-29T16:20:10.644Z,3.33
2022-07-29T16:22:42.131Z,3.20
2022-07-29T16:25:12.350Z,3.05
2022-07-29T16:27:39.423Z,3.00
2022-07-29T16:30:09.645Z,2.90
2022-07-29T16:32:36.852Z,2.80
2022-07-29T16:35:05.237Z,2.70
2022-07-29T16:37:35.535Z,2.70
2022-07-29T16:40:05.493Z,2.45
2022-07-29T16:42:49.169Z,2.58
2022-07-29T16:45:22.468Z,2.80
2022-07-29T16:47:49.711Z,2.85
2022-07-29T16:50:17.079Z,2.90
2022-07-29T16:52:50.351Z,2.80
2022-07-29T16:55:17.610Z,2.85
2022-07-29T16:57:45.404Z,2.83
2022-07-29T17:00:13.976Z,2.65
2022-07-29T17:02:46.865Z,2.80
2022-07-29T17:05:15.404Z,2.90
2022-07-29T17:07:43.139Z,2.80
2022-07-29T17:10:13.235Z,2.80
2022-07-29T17:12:41.110Z,3.63
2022-07-29T17:15:11.712Z,2.67
2022-07-29T17:17:55.187Z,2.80
2022-07-29T17:20:24.034Z,2.70
2022-07-29T17:22:51.171Z,2.80
2022-07-29T17:25:20.321Z,2.50
2022-07-29T17:27:49.432Z,2.58
2022-07-29T17:30:16.782Z,2.63
2022-07-29T17:32:43.937Z,2.63
2022-07-29T17:35:29.716Z,2.60
2022-07-29T17:38:00.548Z,2.40
2022-07-29T17:40:27.647Z,2.63
2022-07-29T17:42:54.774Z,2.50
2022-07-29T17:45:21.862Z,2.40
2022-07-29T17:47:48.935Z,2.50
2022-07-29T17:50:16.192Z,2.78
2022-07-29T17:52:43.321Z,2.53
2022-07-29T17:55:12.894Z,2.70
2022-07-29T17:57:39.964Z,2.60
2022-07-29T18:00:09.649Z,2.45
2022-07-29T18:02:41.369Z,2.92
2022-07-29T18:05:08.586Z,2.50
2022-07-29T18:07:35.640Z,2.85
2022-07-29T18:10:02.844Z,2.60
2022-07-29T18:12:31.080Z,2.80
2022-07-29T18:14:59.944Z,2.40
2022-07-29T18:17:48.450Z,2.45
2022-07-29T18:23:08.463Z,2.00
2022-07-29T18:25:37.551Z,1.90
2022-07-29T18:28:05.309Z,2.20
2022-07-29T18:30:37.773Z,2.08
2022-07-29T18:33:20.610Z,2.10
2022-07-29T18:35:50.327Z,2.20
2022-07-29T18:38:17.649Z,2.10
2022-07-29T18:40:45.649Z,2.00
2022-07-29T18:43:13.686Z,2.30
2022-07-29T18:45:43.127Z,1.90
2022-07-29T18:48:12.941Z,2.20
2022-07-29T18:50:41.263Z,2.03
2022-07-29T18:53:08.653Z,1.90
2022-07-29T18:55:35.988Z,2.35
2022-07-29T18:58:06.075Z,2.22
2022-07-29T19:00:33.265Z,2.10
2022-07-29T19:03:00.449Z,2.25
2022-07-29T19:05:27.586Z,2.53
2022-07-29T19:07:56.136Z,2.20
2022-07-29T19:10:23.439Z,2.37
2022-07-29T19:12:50.562Z,2.50
2022-07-29T19:15:19.928Z,2.00
2022-07-29T19:17:48.469Z,2.47
2022-07-29T19:20:15.615Z,2.30
2022-07-29T19:22:42.707Z,2.10
2022-07-29T19:25:10.382Z,2.20
2022-07-29T19:27:37.475Z,2.95
2022-07-29T19:30:06.524Z,2.20
2022-07-29T19:32:35.068Z,2.80
2022-07-29T19:35:24.667Z,2.67
2022-07-29T19:37:52.437Z,3.33
2022-07-29T19:40:19.951Z,2.25
2022-07-29T19:42:48.310Z,2.47
2022-07-29T19:45:19.257Z,2.22
2022-07-29T19:47:46.715Z,2.20
2022-07-29T19:50:14.009Z,2.53
2022-07-29T19:52:41.390Z,2.55
2022-07-29T19:55:09.172Z,2.97
2022-07-29T19:57:40.966Z,2.50
2022-07-29T20:00:08.666Z,2.38
2022-07-29T20:02:40.922Z,2.20
2022-07-29T20:05:08.501Z,2.50
2022-07-29T20:07:36.022Z,2.30
2022-07-29T20:10:03.235Z,2.58
2022-07-29T20:12:38.589Z,2.30
2022-07-29T20:15:07.211Z,2.40
2022-07-29T20:17:39.344Z,2.30
2022-07-29T20:20:15.113Z,2.25
2022-07-29T20:22:42.825Z,2.40
2022-07-29T20:25:11.420Z,2.50
2022-07-29T20:27:44.131Z,2.70
2022-07-29T20:30:15.006Z,2.53
2022-07-29T20:32:42.701Z,2.70
2022-07-29T20:35:24.914Z,2.85
2022-07-29T20:37:56.662Z,2.70
2022-07-29T20:40:24.670Z,2.63
2022-07-29T20:42:53.954Z,2.60
2022-07-29T20:45:21.159Z,2.67
2022-07-29T20:47:48.240Z,3.10
2022-07-29T20:50:15.432Z,2.55
2022-07-29T20:52:44.005Z,2.60
2022-07-29T20:55:11.649Z,2.83
2022-07-29T20:57:40.004Z,2.95
2022-07-29T21:00:10.298Z,2.90
2022-07-29T21:02:39.280Z,2.85
2022-07-29T21:05:09.505Z,3.00
2022-07-29T21:07:40.441Z,2.75
2022-07-29T21:10:07.750Z,2.75
2022-07-29T21:12:34.841Z,2.70
2022-07-29T21:15:06.167Z,2.78
2022-07-29T21:17:40.550Z,2.53
2022-07-29T21:20:08.562Z,3.03
2022-07-29T21:22:35.790Z,2.88
2022-07-29T21:25:02.880Z,2.90
2022-07-29T21:27:48.597Z,3.03
2022-07-29T21:30:15.945Z,2.83
2022-07-29T21:32:43.124Z,3.10
2022-07-29T21:35:27.271Z,3.20
2022-07-29T21:38:02.364Z,3.00
2022-07-29T21:40:32.489Z,2.95
2022-07-29T21:42:59.638Z,3.08
2022-07-29T21:45:27.984Z,3.00
2022-07-29T21:47:55.130Z,3.20
2022-07-29T21:50:23.247Z,3.00
2022-07-29T21:52:50.327Z,2.90
2022-07-29T21:55:21.895Z,3.15
2022-07-29T21:57:51.404Z,3.92
2022-07-29T22:00:19.649Z,3.83
2022-07-29T22:02:46.926Z,3.40
2022-07-29T22:05:19.527Z,3.55
2022-07-29T22:07:55.855Z,3.60
2022-07-29T22:10:23.923Z,3.63
2022-07-29T22:12:54.606Z,3.78
2022-07-29T22:15:22.320Z,3.70
2022-07-29T22:17:49.471Z,3.63
2022-07-29T22:20:16.677Z,3.80
2022-07-29T22:22:44.148Z,3.80
2022-07-29T22:25:11.451Z,4.17
2022-07-29T22:27:38.689Z,4.20
2022-07-29T22:30:07.242Z,4.20
2022-07-29T22:32:34.504Z,3.95
2022-07-29T22:35:01.622Z,4.10
2022-07-29T22:37:28.748Z,4.38
2022-07-29T22:39:55.832Z,4.60
2022-07-29T22:42:24.943Z,4.60
2022-07-29T22:44:52.098Z,4.40
2022-07-29T22:47:45.767Z,4.77
2022-07-29T22:50:14.802Z,4.68
2022-07-29T22:52:41.917Z,4.30
2022-07-29T22:55:11.513Z,4.35
2022-07-29T22:57:38.621Z,4.85
2022-07-29T23:00:06.122Z,4.88
2022-07-29T23:02:33.284Z,4.80
2022-07-29T23:05:01.785Z,5.70
2022-07-29T23:07:28.881Z,5.27
2022-07-29T23:09:56.739Z,5.50
2022-07-29T23:12:23.815Z,5.80
2022-07-29T23:14:53.664Z,5.57
2022-07-29T23:17:20.775Z,6.22
2022-07-29T23:19:48.226Z,6.82
2022-07-29T23:22:18.575Z,6.30
2022-07-29T23:24:45.889Z,6.47
2022-07-29T23:27:12.945Z,6.47
2022-07-29T23:29:40.020Z,6.80
2022-07-29T23:32:07.235Z,6.55
2022-07-29T23:34:34.316Z,6.38
2022-07-29T23:37:01.626Z,6.70
2022-07-29T23:39:29.980Z,6.80
2022-07-29T23:41:57.048Z,6.20
2022-07-29T23:44:24.101Z,6.63
2022-07-29T23:46:51.259Z,6.50
2022-07-29T23:49:18.504Z,6.40
2022-07-29T23:51:47.931Z,6.82
2022-07-29T23:54:16.009Z,7.28
2022-07-29T23:56:44.105Z,7.30
2022-07-29T23:59:21.028Z,7.15
